sensor_id;sensor_type;location;lat;lon;timestamp;temperature;humidity
19254;DHT22;9761;50.926;5.330;2022-12-18T00:01:19;-4.20;99.90
19254;DHT22;9761;50.926;5.330;2022-12-18T00:03:46;-4.20;99.90
19254;DHT22;9761;50.926;5.330;2022-12-18T00:06:15;-4.20;99.90
19254;DHT22;9761;50.926;5.330;2022-12-18T00:08:43;-4.20;99.90
19254;DHT22;9761;50.926;5.330;2022-12-18T00:11:12;-4.20;99.90
19254;DHT22;9761;50.926;5.330;2022-12-18T00:13:40;-4.20;99.90
19254;DHT22;9761;50.926;5.330;2022-12-18T00:16:09;-4.20;99.90
19254;DHT22;9761;50.926;5.330;2022-12-18T00:18:37;-4.20;99.90
19254;DHT22;9761;50.926;5.330;2022-12-18T00:21:06;-4.20;99.90
19254;DHT22;9761;50.926;5.330;2022-12-18T00:23:36;-4.10;99.90
19254;DHT22;9761;50.926;5.330;2022-12-18T00:26:05;-3.90;99.90
19254;DHT22;9761;50.926;5.330;2022-12-18T00:28:32;-3.80;99.90
19254;DHT22;9761;50.926;5.330;2022-12-18T00:31:00;-3.80;99.90
19254;DHT22;9761;50.926;5.330;2022-12-18T00:33:27;-3.90;99.90
19254;DHT22;9761;50.926;5.330;2022-12-18T00:35:54;-3.90;99.90
19254;DHT22;9761;50.926;5.330;2022-12-18T00:38:26;-4.00;99.90
19254;DHT22;9761;50.926;5.330;2022-12-18T00:40:55;-4.00;99.90
19254;DHT22;9761;50.926;5.330;2022-12-18T00:43:21;-4.10;99.90
19254;DHT22;9761;50.926;5.330;2022-12-18T00:45:48;-4.00;99.90
19254;DHT22;9761;50.926;5.330;2022-12-18T00:48:31;-4.10;99.90
19254;DHT22;9761;50.926;5.330;2022-12-18T00:50:58;-4.10;99.90
19254;DHT22;9761;50.926;5.330;2022-12-18T00:53:25;-4.30;99.90
19254;DHT22;9761;50.926;5.330;2022-12-18T00:55:52;-4.40;99.90
19254;DHT22;9761;50.926;5.330;2022-12-18T00:58:21;-4.40;99.90
19254;DHT22;9761;50.926;5.330;2022-12-18T01:00:49;-4.40;99.90
19254;DHT22;9761;50.926;5.330;2022-12-18T01:03:18;-4.20;99.90
19254;DHT22;9761;50.926;5.330;2022-12-18T01:08:47;-4.00;99.90
19254;DHT22;9761;50.926;5.330;2022-12-18T01:11:20;-4.00;99.90
19254;DHT22;9761;50.926;5.330;2022-12-18T01:13:50;-4.10;99.90
19254;DHT22;9761;50.926;5.330;2022-12-18T01:16:20;-4.10;99.90
19254;DHT22;9761;50.926;5.330;2022-12-18T01:18:52;-4.10;99.90
19254;DHT22;9761;50.926;5.330;2022-12-18T01:21:25;-4.20;99.90
19254;DHT22;9761;50.926;5.330;2022-12-18T01:23:53;-4.30;99.90
19254;DHT22;9761;50.926;5.330;2022-12-18T01:26:21;-4.30;99.90
19254;DHT22;9761;50.926;5.330;2022-12-18T01:28:54;-4.30;99.90
19254;DHT22;9761;50.926;5.330;2022-12-18T01:31:24;-4.30;99.90
19254;DHT22;9761;50.926;5.330;2022-12-18T01:33:52;-4.30;99.90
19254;DHT22;9761;50.926;5.330;2022-12-18T01:36:22;-4.40;99.90
19254;DHT22;9761;50.926;5.330;2022-12-18T01:38:50;-4.40;99.90
19254;DHT22;9761;50.926;5.330;2022-12-18T01:41:21;-4.40;99.90
19254;DHT22;9761;50.926;5.330;2022-12-18T01:43:51;-4.40;99.90
19254;DHT22;9761;50.926;5.330;2022-12-18T01:46:21;-4.40;99.90
19254;DHT22;9761;50.926;5.330;2022-12-18T01:48:51;-4.40;99.90
19254;DHT22;9761;50.926;5.330;2022-12-18T01:51:20;-4.50;99.90
19254;DHT22;9761;50.926;5.330;2022-12-18T01:53:48;-4.50;99.90
19254;DHT22;9761;50.926;5.330;2022-12-18T01:56:18;-4.50;99.90
19254;DHT22;9761;50.926;5.330;2022-12-18T01:58:52;-4.50;99.90
19254;DHT22;9761;50.926;5.330;2022-12-18T02:01:23;-4.40;99.90
19254;DHT22;9761;50.926;5.330;2022-12-18T02:03:52;-4.30;99.90
19254;DHT22;9761;50.926;5.330;2022-12-18T02:06:22;-4.40;99.90
19254;DHT22;9761;50.926;5.330;2022-12-18T02:09:01;-4.40;99.90
19254;DHT22;9761;50.926;5.330;2022-12-18T02:11:40;-4.40;99.90
19254;DHT22;9761;50.926;5.330;2022-12-18T02:14:18;-4.50;99.90
19254;DHT22;9761;50.926;5.330;2022-12-18T02:16:52;-4.40;99.90
19254;DHT22;9761;50.926;5.330;2022-12-18T02:19:41;-4.40;99.90
19254;DHT22;9761;50.926;5.330;2022-12-18T02:22:20;-4.40;99.90
19254;DHT22;9761;50.926;5.330;2022-12-18T02:25:01;-4.50;99.90
19254;DHT22;9761;50.926;5.330;2022-12-18T02:27:35;-4.40;99.90
19254;DHT22;9761;50.926;5.330;2022-12-18T02:30:06;-4.50;99.90
19254;DHT22;9761;50.926;5.330;2022-12-18T02:32:36;-4.40;99.90
19254;DHT22;9761;50.926;5.330;2022-12-18T02:35:07;-4.40;99.90
19254;DHT22;9761;50.926;5.330;2022-12-18T02:37:36;-4.30;99.90
19254;DHT22;9761;50.926;5.330;2022-12-18T02:40:07;-4.40;99.90
19254;DHT22;9761;50.926;5.330;2022-12-18T02:42:36;-4.30;99.90
19254;DHT22;9761;50.926;5.330;2022-12-18T02:45:04;-4.20;99.90
19254;DHT22;9761;50.926;5.330;2022-12-18T02:47:36;-4.30;99.90
19254;DHT22;9761;50.926;5.330;2022-12-18T02:50:09;-4.40;99.90
19254;DHT22;9761;50.926;5.330;2022-12-18T02:52:44;-4.40;99.90
19254;DHT22;9761;50.926;5.330;2022-12-18T02:55:23;-4.50;99.90
19254;DHT22;9761;50.926;5.330;2022-12-18T02:57:57;-4.50;99.90
19254;DHT22;9761;50.926;5.330;2022-12-18T03:00:30;-4.60;99.90
19254;DHT22;9761;50.926;5.330;2022-12-18T03:03:04;-4.60;99.90
19254;DHT22;9761;50.926;5.330;2022-12-18T03:05:38;-4.60;99.90
19254;DHT22;9761;50.926;5.330;2022-12-18T03:08:08;-4.60;99.90
19254;DHT22;9761;50.926;5.330;2022-12-18T03:10:43;-4.70;99.90
19254;DHT22;9761;50.926;5.330;2022-12-18T03:13:16;-4.80;99.90
19254;DHT22;9761;50.926;5.330;2022-12-18T03:15:48;-4.70;99.90
19254;DHT22;9761;50.926;5.330;2022-12-18T03:18:18;-4.80;99.90
19254;DHT22;9761;50.926;5.330;2022-12-18T03:20:47;-4.80;99.90
19254;DHT22;9761;50.926;5.330;2022-12-18T03:23:17;-4.90;99.90
19254;DHT22;9761;50.926;5.330;2022-12-18T03:25:47;-4.90;99.90
19254;DHT22;9761;50.926;5.330;2022-12-18T03:28:20;-4.90;99.90
19254;DHT22;9761;50.926;5.330;2022-12-18T03:30:52;-4.90;99.90
19254;DHT22;9761;50.926;5.330;2022-12-18T03:33:25;-5.00;99.90
19254;DHT22;9761;50.926;5.330;2022-12-18T03:35:53;-5.00;99.90
19254;DHT22;9761;50.926;5.330;2022-12-18T03:38:20;-5.00;99.90
19254;DHT22;9761;50.926;5.330;2022-12-18T03:40:56;-5.10;99.90
19254;DHT22;9761;50.926;5.330;2022-12-18T03:43:35;-5.10;99.90
19254;DHT22;9761;50.926;5.330;2022-12-18T03:46:06;-5.20;99.90
19254;DHT22;9761;50.926;5.330;2022-12-18T03:48:40;-5.20;99.90
19254;DHT22;9761;50.926;5.330;2022-12-18T03:51:11;-5.20;99.90
19254;DHT22;9761;50.926;5.330;2022-12-18T03:53:46;-5.20;99.90
19254;DHT22;9761;50.926;5.330;2022-12-18T03:56:16;-5.20;99.90
19254;DHT22;9761;50.926;5.330;2022-12-18T03:58:46;-5.30;99.90
19254;DHT22;9761;50.926;5.330;2022-12-18T04:01:15;-5.40;99.90
19254;DHT22;9761;50.926;5.330;2022-12-18T04:03:44;-5.30;99.90
19254;DHT22;9761;50.926;5.330;2022-12-18T04:06:13;-5.40;99.90
19254;DHT22;9761;50.926;5.330;2022-12-18T04:08:42;-5.30;99.90
19254;DHT22;9761;50.926;5.330;2022-12-18T04:11:10;-5.30;99.90
19254;DHT22;9761;50.926;5.330;2022-12-18T04:13:38;-5.20;99.90
19254;DHT22;9761;50.926;5.330;2022-12-18T04:16:10;-5.20;99.90
19254;DHT22;9761;50.926;5.330;2022-12-18T04:18:37;-5.30;99.90
19254;DHT22;9761;50.926;5.330;2022-12-18T04:21:06;-5.30;99.90
19254;DHT22;9761;50.926;5.330;2022-12-18T04:23:33;-5.30;99.90
19254;DHT22;9761;50.926;5.330;2022-12-18T04:26:01;-5.20;99.90
19254;DHT22;9761;50.926;5.330;2022-12-18T04:28:28;-5.30;99.90
19254;DHT22;9761;50.926;5.330;2022-12-18T04:30:55;-5.20;99.90
19254;DHT22;9761;50.926;5.330;2022-12-18T04:33:25;-5.20;99.90
19254;DHT22;9761;50.926;5.330;2022-12-18T04:35:52;-5.20;99.90
19254;DHT22;9761;50.926;5.330;2022-12-18T04:38:22;-5.20;99.90
19254;DHT22;9761;50.926;5.330;2022-12-18T04:40:52;-5.20;99.90
19254;DHT22;9761;50.926;5.330;2022-12-18T04:43:19;-5.20;99.90
19254;DHT22;9761;50.926;5.330;2022-12-18T04:45:47;-5.20;99.90
19254;DHT22;9761;50.926;5.330;2022-12-18T04:48:14;-5.00;99.90
19254;DHT22;9761;50.926;5.330;2022-12-18T04:50:42;-5.10;99.90
19254;DHT22;9761;50.926;5.330;2022-12-18T04:53:09;-5.10;99.90
19254;DHT22;9761;50.926;5.330;2022-12-18T04:55:36;-5.10;99.90
19254;DHT22;9761;50.926;5.330;2022-12-18T04:58:03;-4.90;99.90
19254;DHT22;9761;50.926;5.330;2022-12-18T05:00:30;-4.90;99.90
19254;DHT22;9761;50.926;5.330;2022-12-18T05:02:57;-4.90;99.90
19254;DHT22;9761;50.926;5.330;2022-12-18T05:05:27;-4.90;99.90
19254;DHT22;9761;50.926;5.330;2022-12-18T05:07:56;-4.90;99.90
19254;DHT22;9761;50.926;5.330;2022-12-18T05:10:24;-4.90;99.90
19254;DHT22;9761;50.926;5.330;2022-12-18T05:12:51;-4.90;99.90
19254;DHT22;9761;50.926;5.330;2022-12-18T05:15:30;-4.90;99.90
19254;DHT22;9761;50.926;5.330;2022-12-18T05:17:58;-5.00;99.90
19254;DHT22;9761;50.926;5.330;2022-12-18T05:20:26;-5.20;99.90
19254;DHT22;9761;50.926;5.330;2022-12-18T05:22:55;-5.20;99.90
19254;DHT22;9761;50.926;5.330;2022-12-18T05:25:22;-5.20;99.90
19254;DHT22;9761;50.926;5.330;2022-12-18T05:27:50;-5.20;99.90
19254;DHT22;9761;50.926;5.330;2022-12-18T05:30:17;-5.30;99.90
19254;DHT22;9761;50.926;5.330;2022-12-18T05:32:48;-5.20;99.90
19254;DHT22;9761;50.926;5.330;2022-12-18T05:35:15;-5.10;99.90
19254;DHT22;9761;50.926;5.330;2022-12-18T05:37:42;-5.20;99.90
19254;DHT22;9761;50.926;5.330;2022-12-18T05:40:13;-5.20;99.90
19254;DHT22;9761;50.926;5.330;2022-12-18T05:42:40;-5.30;99.90
19254;DHT22;9761;50.926;5.330;2022-12-18T05:45:08;-5.40;99.90
19254;DHT22;9761;50.926;5.330;2022-12-18T05:47:35;-5.20;99.90
19254;DHT22;9761;50.926;5.330;2022-12-18T05:50:02;-5.20;99.90
19254;DHT22;9761;50.926;5.330;2022-12-18T05:52:31;-5.20;99.90
19254;DHT22;9761;50.926;5.330;2022-12-18T05:54:59;-5.30;99.90
19254;DHT22;9761;50.926;5.330;2022-12-18T05:57:28;-5.20;99.90
19254;DHT22;9761;50.926;5.330;2022-12-18T05:59:55;-5.10;99.90
19254;DHT22;9761;50.926;5.330;2022-12-18T06:02:25;-5.20;99.90
19254;DHT22;9761;50.926;5.330;2022-12-18T06:04:53;-5.20;99.90
19254;DHT22;9761;50.926;5.330;2022-12-18T06:07:20;-5.20;99.90
19254;DHT22;9761;50.926;5.330;2022-12-18T06:09:47;-5.30;99.90
19254;DHT22;9761;50.926;5.330;2022-12-18T06:12:14;-5.20;99.90
19254;DHT22;9761;50.926;5.330;2022-12-18T06:14:45;-5.20;99.90
19254;DHT22;9761;50.926;5.330;2022-12-18T06:17:12;-5.20;99.90
19254;DHT22;9761;50.926;5.330;2022-12-18T06:19:39;-5.20;99.90
19254;DHT22;9761;50.926;5.330;2022-12-18T06:22:06;-5.30;99.90
19254;DHT22;9761;50.926;5.330;2022-12-18T06:24:33;-5.30;99.90
19254;DHT22;9761;50.926;5.330;2022-12-18T06:27:00;-5.20;99.90
19254;DHT22;9761;50.926;5.330;2022-12-18T06:29:27;-5.20;99.90
19254;DHT22;9761;50.926;5.330;2022-12-18T06:32:02;-5.30;99.90
19254;DHT22;9761;50.926;5.330;2022-12-18T06:34:30;-5.20;99.90
19254;DHT22;9761;50.926;5.330;2022-12-18T06:36:58;-5.40;99.90
19254;DHT22;9761;50.926;5.330;2022-12-18T06:39:27;-5.30;99.90
19254;DHT22;9761;50.926;5.330;2022-12-18T06:41:56;-5.30;99.90
19254;DHT22;9761;50.926;5.330;2022-12-18T06:44:23;-5.40;99.90
19254;DHT22;9761;50.926;5.330;2022-12-18T06:46:50;-5.40;99.90
19254;DHT22;9761;50.926;5.330;2022-12-18T06:49:19;-5.50;99.90
19254;DHT22;9761;50.926;5.330;2022-12-18T06:51:46;-5.30;99.90
19254;DHT22;9761;50.926;5.330;2022-12-18T06:54:13;-5.30;99.90
19254;DHT22;9761;50.926;5.330;2022-12-18T06:56:45;-5.30;99.90
19254;DHT22;9761;50.926;5.330;2022-12-18T06:59:12;-5.30;99.90
19254;DHT22;9761;50.926;5.330;2022-12-18T07:01:41;-5.30;99.90
19254;DHT22;9761;50.926;5.330;2022-12-18T07:04:12;-5.30;99.90
19254;DHT22;9761;50.926;5.330;2022-12-18T07:06:40;-5.30;99.90
19254;DHT22;9761;50.926;5.330;2022-12-18T07:09:07;-5.30;99.90
19254;DHT22;9761;50.926;5.330;2022-12-18T07:11:34;-5.30;99.90
19254;DHT22;9761;50.926;5.330;2022-12-18T07:14:01;-5.40;99.90
19254;DHT22;9761;50.926;5.330;2022-12-18T07:16:28;-5.50;99.90
19254;DHT22;9761;50.926;5.330;2022-12-18T07:18:56;-5.50;99.90
19254;DHT22;9761;50.926;5.330;2022-12-18T07:21:24;-5.50;99.90
19254;DHT22;9761;50.926;5.330;2022-12-18T07:23:52;-5.50;99.90
19254;DHT22;9761;50.926;5.330;2022-12-18T07:26:20;-5.40;99.90
19254;DHT22;9761;50.926;5.330;2022-12-18T07:28:55;-5.40;99.90
19254;DHT22;9761;50.926;5.330;2022-12-18T07:31:26;-5.40;99.90
19254;DHT22;9761;50.926;5.330;2022-12-18T07:33:59;-5.40;99.90
19254;DHT22;9761;50.926;5.330;2022-12-18T07:36:26;-5.50;99.90
19254;DHT22;9761;50.926;5.330;2022-12-18T07:38:54;-5.50;99.90
19254;DHT22;9761;50.926;5.330;2022-12-18T07:41:34;-5.50;99.90
19254;DHT22;9761;50.926;5.330;2022-12-18T07:44:01;-5.60;99.90
19254;DHT22;9761;50.926;5.330;2022-12-18T07:46:28;-5.60;99.90
19254;DHT22;9761;50.926;5.330;2022-12-18T07:48:55;-5.50;99.90
19254;DHT22;9761;50.926;5.330;2022-12-18T07:51:23;-5.60;99.90
19254;DHT22;9761;50.926;5.330;2022-12-18T07:53:50;-5.50;99.90
19254;DHT22;9761;50.926;5.330;2022-12-18T07:56:42;-5.50;99.90
19254;DHT22;9761;50.926;5.330;2022-12-18T08:05:00;-5.40;99.90
19254;DHT22;9761;50.926;5.330;2022-12-18T08:07:30;-5.50;99.90
19254;DHT22;9761;50.926;5.330;2022-12-18T08:09:57;-5.40;99.90
19254;DHT22;9761;50.926;5.330;2022-12-18T08:18:57;-5.20;99.90
19254;DHT22;9761;50.926;5.330;2022-12-18T08:21:26;-5.10;99.90
19254;DHT22;9761;50.926;5.330;2022-12-18T08:23:58;-5.10;99.90
19254;DHT22;9761;50.926;5.330;2022-12-18T08:26:27;-5.10;99.90
19254;DHT22;9761;50.926;5.330;2022-12-18T08:28:55;-5.00;99.90
19254;DHT22;9761;50.926;5.330;2022-12-18T08:31:52;-4.90;99.90
19254;DHT22;9761;50.926;5.330;2022-12-18T08:34:23;-4.80;99.90
19254;DHT22;9761;50.926;5.330;2022-12-18T08:36:50;-4.90;99.90
19254;DHT22;9761;50.926;5.330;2022-12-18T08:39:18;-5.00;99.90
19254;DHT22;9761;50.926;5.330;2022-12-18T08:41:45;-4.90;99.90
19254;DHT22;9761;50.926;5.330;2022-12-18T08:44:32;-4.70;99.90
19254;DHT22;9761;50.926;5.330;2022-12-18T08:47:05;-4.70;99.90
19254;DHT22;9761;50.926;5.330;2022-12-18T08:49:34;-4.60;99.90
19254;DHT22;9761;50.926;5.330;2022-12-18T08:52:02;-4.60;99.90
19254;DHT22;9761;50.926;5.330;2022-12-18T08:54:29;-4.50;99.90
19254;DHT22;9761;50.926;5.330;2022-12-18T08:56:56;-4.40;99.90
19254;DHT22;9761;50.926;5.330;2022-12-18T08:59:23;-4.30;99.90
19254;DHT22;9761;50.926;5.330;2022-12-18T09:01:54;-4.20;99.90
19254;DHT22;9761;50.926;5.330;2022-12-18T09:04:21;-4.10;99.90
19254;DHT22;9761;50.926;5.330;2022-12-18T09:06:50;-4.00;99.90
19254;DHT22;9761;50.926;5.330;2022-12-18T09:09:26;-3.90;99.90
19254;DHT22;9761;50.926;5.330;2022-12-18T09:11:54;-4.00;99.90
19254;DHT22;9761;50.926;5.330;2022-12-18T09:14:22;-4.10;99.90
19254;DHT22;9761;50.926;5.330;2022-12-18T09:17:03;-4.10;99.90
19254;DHT22;9761;50.926;5.330;2022-12-18T09:22:26;-3.90;99.90
19254;DHT22;9761;50.926;5.330;2022-12-18T09:25:00;-3.60;99.90
19254;DHT22;9761;50.926;5.330;2022-12-18T09:27:27;-3.60;99.90
19254;DHT22;9761;50.926;5.330;2022-12-18T09:30:05;-3.40;99.90
19254;DHT22;9761;50.926;5.330;2022-12-18T09:44:10;-3.40;99.90
19254;DHT22;9761;50.926;5.330;2022-12-18T10:15:47;-2.50;99.90
19254;DHT22;9761;50.926;5.330;2022-12-18T10:21:17;-2.50;99.90
19254;DHT22;9761;50.926;5.330;2022-12-18T10:24:08;-2.40;99.90
19254;DHT22;9761;50.926;5.330;2022-12-18T10:27:35;-2.30;99.90
19254;DHT22;9761;50.926;5.330;2022-12-18T10:30:12;-2.40;99.90
19254;DHT22;9761;50.926;5.330;2022-12-18T10:32:41;-2.30;99.90
19254;DHT22;9761;50.926;5.330;2022-12-18T10:40:47;-2.00;99.90
19254;DHT22;9761;50.926;5.330;2022-12-18T10:43:15;-2.10;99.90
19254;DHT22;9761;50.926;5.330;2022-12-18T10:46:00;-2.20;99.90
19254;DHT22;9761;50.926;5.330;2022-12-18T10:48:33;-2.10;99.90
19254;DHT22;9761;50.926;5.330;2022-12-18T10:51:02;-2.10;99.90
19254;DHT22;9761;50.926;5.330;2022-12-18T10:53:30;-2.00;99.90
19254;DHT22;9761;50.926;5.330;2022-12-18T10:56:00;-1.90;99.90
19254;DHT22;9761;50.926;5.330;2022-12-18T10:58:30;-1.90;99.90
19254;DHT22;9761;50.926;5.330;2022-12-18T11:01:11;-1.80;99.90
19254;DHT22;9761;50.926;5.330;2022-12-18T11:03:41;-1.60;99.90
19254;DHT22;9761;50.926;5.330;2022-12-18T11:06:11;-1.50;99.90
19254;DHT22;9761;50.926;5.330;2022-12-18T11:11:19;-1.40;99.90
19254;DHT22;9761;50.926;5.330;2022-12-18T11:13:57;-1.20;99.90
19254;DHT22;9761;50.926;5.330;2022-12-18T11:16:26;-1.10;99.90
19254;DHT22;9761;50.926;5.330;2022-12-18T11:19:11;-1.20;99.90
19254;DHT22;9761;50.926;5.330;2022-12-18T11:21:39;-1.20;99.90
19254;DHT22;9761;50.926;5.330;2022-12-18T11:24:17;-1.00;99.90
19254;DHT22;9761;50.926;5.330;2022-12-18T11:26:59;-0.70;99.90
19254;DHT22;9761;50.926;5.330;2022-12-18T11:29:32;-0.60;99.90
19254;DHT22;9761;50.926;5.330;2022-12-18T11:35:12;-0.60;99.90
19254;DHT22;9761;50.926;5.330;2022-12-18T11:37:44;-0.70;99.90
19254;DHT22;9761;50.926;5.330;2022-12-18T11:40:17;-0.60;99.90
19254;DHT22;9761;50.926;5.330;2022-12-18T11:42:49;-0.50;99.90
19254;DHT22;9761;50.926;5.330;2022-12-18T11:45:29;-0.40;99.90
19254;DHT22;9761;50.926;5.330;2022-12-18T11:48:02;-0.30;99.90
19254;DHT22;9761;50.926;5.330;2022-12-18T11:50:41;-0.20;99.90
19254;DHT22;9761;50.926;5.330;2022-12-18T11:53:12;-0.10;99.90
19254;DHT22;9761;50.926;5.330;2022-12-18T11:59:11;-0.10;99.90
19254;DHT22;9761;50.926;5.330;2022-12-18T12:01:48;-0.20;99.90
19254;DHT22;9761;50.926;5.330;2022-12-18T12:04:46;-0.20;99.90
19254;DHT22;9761;50.926;5.330;2022-12-18T12:07:28;-0.10;99.90
19254;DHT22;9761;50.926;5.330;2022-12-18T12:10:08;-0.10;99.90
19254;DHT22;9761;50.926;5.330;2022-12-18T12:12:43;0.10;99.90
19254;DHT22;9761;50.926;5.330;2022-12-18T12:15:29;0.20;99.90
19254;DHT22;9761;50.926;5.330;2022-12-18T12:18:21;0.00;99.90
19254;DHT22;9761;50.926;5.330;2022-12-18T12:21:02;0.10;99.90
19254;DHT22;9761;50.926;5.330;2022-12-18T12:23:40;0.10;99.90
19254;DHT22;9761;50.926;5.330;2022-12-18T12:26:12;0.20;99.90
19254;DHT22;9761;50.926;5.330;2022-12-18T12:29:01;0.40;99.90
19254;DHT22;9761;50.926;5.330;2022-12-18T12:35:25;0.70;99.90
19254;DHT22;9761;50.926;5.330;2022-12-18T12:38:32;0.60;99.90
19254;DHT22;9761;50.926;5.330;2022-12-18T12:41:05;0.60;99.90
19254;DHT22;9761;50.926;5.330;2022-12-18T12:43:54;0.80;99.90
19254;DHT22;9761;50.926;5.330;2022-12-18T12:46:23;0.70;99.90
19254;DHT22;9761;50.926;5.330;2022-12-18T12:51:28;0.40;99.90
19254;DHT22;9761;50.926;5.330;2022-12-18T12:57:10;0.50;99.90
19254;DHT22;9761;50.926;5.330;2022-12-18T12:59:47;0.60;99.90
19254;DHT22;9761;50.926;5.330;2022-12-18T13:02:29;0.60;99.90
19254;DHT22;9761;50.926;5.330;2022-12-18T13:05:25;0.70;99.90
19254;DHT22;9761;50.926;5.330;2022-12-18T13:08:22;0.70;99.90
19254;DHT22;9761;50.926;5.330;2022-12-18T13:13:57;0.90;99.90
19254;DHT22;9761;50.926;5.330;2022-12-18T13:16:25;0.90;99.90
19254;DHT22;9761;50.926;5.330;2022-12-18T13:18:56;0.90;99.90
19254;DHT22;9761;50.926;5.330;2022-12-18T13:21:27;0.90;99.90
19254;DHT22;9761;50.926;5.330;2022-12-18T13:23:54;0.70;99.90
19254;DHT22;9761;50.926;5.330;2022-12-18T13:26:32;0.60;99.90
19254;DHT22;9761;50.926;5.330;2022-12-18T13:29:02;0.80;99.90
19254;DHT22;9761;50.926;5.330;2022-12-18T13:34:33;0.80;99.90
19254;DHT22;9761;50.926;5.330;2022-12-18T13:37:40;0.90;99.90
19254;DHT22;9761;50.926;5.330;2022-12-18T13:43:24;0.80;99.90
19254;DHT22;9761;50.926;5.330;2022-12-18T13:46:16;0.90;99.90
19254;DHT22;9761;50.926;5.330;2022-12-18T13:48:52;1.10;99.90
19254;DHT22;9761;50.926;5.330;2022-12-18T13:51:20;1.20;99.90
19254;DHT22;9761;50.926;5.330;2022-12-18T13:53:50;1.20;99.90
19254;DHT22;9761;50.926;5.330;2022-12-18T13:56:23;1.00;99.90
19254;DHT22;9761;50.926;5.330;2022-12-18T13:59:11;0.90;99.90
19254;DHT22;9761;50.926;5.330;2022-12-18T14:01:47;0.90;99.90
19254;DHT22;9761;50.926;5.330;2022-12-18T14:04:22;1.10;99.90
19254;DHT22;9761;50.926;5.330;2022-12-18T14:06:52;1.10;99.90
19254;DHT22;9761;50.926;5.330;2022-12-18T14:09:25;1.00;99.90
19254;DHT22;9761;50.926;5.330;2022-12-18T14:12:24;1.00;99.90
19254;DHT22;9761;50.926;5.330;2022-12-18T14:15:22;1.00;99.90
19254;DHT22;9761;50.926;5.330;2022-12-18T14:17:54;1.00;99.90
19254;DHT22;9761;50.926;5.330;2022-12-18T14:20:24;1.10;99.90
19254;DHT22;9761;50.926;5.330;2022-12-18T14:22:54;1.20;99.90
19254;DHT22;9761;50.926;5.330;2022-12-18T14:25:35;1.30;99.90
19254;DHT22;9761;50.926;5.330;2022-12-18T14:28:11;1.20;99.90
19254;DHT22;9761;50.926;5.330;2022-12-18T14:30:41;1.20;99.90
19254;DHT22;9761;50.926;5.330;2022-12-18T14:33:14;1.10;99.90
19254;DHT22;9761;50.926;5.330;2022-12-18T14:35:53;1.00;99.90
19254;DHT22;9761;50.926;5.330;2022-12-18T14:38:23;1.00;99.90
19254;DHT22;9761;50.926;5.330;2022-12-18T14:43:37;1.10;99.90
19254;DHT22;9761;50.926;5.330;2022-12-18T14:46:29;1.00;99.90
19254;DHT22;9761;50.926;5.330;2022-12-18T14:49:00;1.20;99.90
19254;DHT22;9761;50.926;5.330;2022-12-18T14:51:30;1.20;99.90
19254;DHT22;9761;50.926;5.330;2022-12-18T14:53:59;1.20;99.90
19254;DHT22;9761;50.926;5.330;2022-12-18T14:56:29;1.10;99.90
19254;DHT22;9761;50.926;5.330;2022-12-18T14:58:58;1.20;99.90
19254;DHT22;9761;50.926;5.330;2022-12-18T15:01:28;1.20;99.90
19254;DHT22;9761;50.926;5.330;2022-12-18T15:03:59;1.20;99.90
19254;DHT22;9761;50.926;5.330;2022-12-18T15:06:29;1.40;99.90
19254;DHT22;9761;50.926;5.330;2022-12-18T15:08:58;1.60;99.90
19254;DHT22;9761;50.926;5.330;2022-12-18T15:11:27;1.50;99.90
19254;DHT22;9761;50.926;5.330;2022-12-18T15:13:57;1.50;99.90
19254;DHT22;9761;50.926;5.330;2022-12-18T15:16:25;1.60;99.90
19254;DHT22;9761;50.926;5.330;2022-12-18T15:18:54;1.50;99.90
19254;DHT22;9761;50.926;5.330;2022-12-18T15:21:22;1.60;99.90
19254;DHT22;9761;50.926;5.330;2022-12-18T15:23:51;1.50;99.90
19254;DHT22;9761;50.926;5.330;2022-12-18T15:26:20;1.40;99.90
19254;DHT22;9761;50.926;5.330;2022-12-18T15:28:50;1.30;99.90
19254;DHT22;9761;50.926;5.330;2022-12-18T15:31:31;1.20;99.90
19254;DHT22;9761;50.926;5.330;2022-12-18T15:34:18;1.20;99.90
19254;DHT22;9761;50.926;5.330;2022-12-18T15:36:47;1.20;99.90
19254;DHT22;9761;50.926;5.330;2022-12-18T15:39:14;1.30;99.90
19254;DHT22;9761;50.926;5.330;2022-12-18T15:41:42;1.30;99.90
19254;DHT22;9761;50.926;5.330;2022-12-18T15:44:30;1.40;99.90
19254;DHT22;9761;50.926;5.330;2022-12-18T15:46:59;1.40;99.90
19254;DHT22;9761;50.926;5.330;2022-12-18T15:49:31;1.20;99.90
19254;DHT22;9761;50.926;5.330;2022-12-18T15:52:02;1.40;99.90
19254;DHT22;9761;50.926;5.330;2022-12-18T15:54:29;1.40;99.90
19254;DHT22;9761;50.926;5.330;2022-12-18T15:57:21;1.50;99.90
19254;DHT22;9761;50.926;5.330;2022-12-18T15:59:53;1.80;99.90
19254;DHT22;9761;50.926;5.330;2022-12-18T16:02:22;1.80;99.90
19254;DHT22;9761;50.926;5.330;2022-12-18T16:04:50;1.60;99.90
19254;DHT22;9761;50.926;5.330;2022-12-18T16:07:19;1.60;99.90
19254;DHT22;9761;50.926;5.330;2022-12-18T16:09:46;1.70;99.90
19254;DHT22;9761;50.926;5.330;2022-12-18T16:12:16;1.70;99.90
19254;DHT22;9761;50.926;5.330;2022-12-18T16:14:44;1.60;99.90
19254;DHT22;9761;50.926;5.330;2022-12-18T16:17:12;1.70;99.90
19254;DHT22;9761;50.926;5.330;2022-12-18T16:19:40;1.60;99.90
19254;DHT22;9761;50.926;5.330;2022-12-18T16:22:22;1.60;99.90
19254;DHT22;9761;50.926;5.330;2022-12-18T16:24:50;1.70;99.90
19254;DHT22;9761;50.926;5.330;2022-12-18T16:27:18;1.70;99.90
19254;DHT22;9761;50.926;5.330;2022-12-18T16:29:46;1.80;99.90
19254;DHT22;9761;50.926;5.330;2022-12-18T16:32:22;1.80;99.90
19254;DHT22;9761;50.926;5.330;2022-12-18T16:34:52;1.90;99.90
19254;DHT22;9761;50.926;5.330;2022-12-18T16:37:21;1.90;99.90
19254;DHT22;9761;50.926;5.330;2022-12-18T16:39:48;1.90;99.90
19254;DHT22;9761;50.926;5.330;2022-12-18T16:42:16;1.90;99.90
19254;DHT22;9761;50.926;5.330;2022-12-18T16:44:45;1.70;99.90
19254;DHT22;9761;50.926;5.330;2022-12-18T16:47:15;1.80;99.90
19254;DHT22;9761;50.926;5.330;2022-12-18T16:49:55;1.80;99.90
19254;DHT22;9761;50.926;5.330;2022-12-18T16:52:24;1.90;99.90
19254;DHT22;9761;50.926;5.330;2022-12-18T16:54:52;1.90;99.90
19254;DHT22;9761;50.926;5.330;2022-12-18T16:57:20;2.00;99.90
19254;DHT22;9761;50.926;5.330;2022-12-18T16:59:47;1.90;99.90
19254;DHT22;9761;50.926;5.330;2022-12-18T17:02:17;1.90;99.90
19254;DHT22;9761;50.926;5.330;2022-12-18T17:04:44;1.90;99.90
19254;DHT22;9761;50.926;5.330;2022-12-18T17:07:11;1.80;99.90
19254;DHT22;9761;50.926;5.330;2022-12-18T17:09:41;1.70;99.90
19254;DHT22;9761;50.926;5.330;2022-12-18T17:12:12;1.70;99.90
19254;DHT22;9761;50.926;5.330;2022-12-18T17:14:39;1.70;99.90
19254;DHT22;9761;50.926;5.330;2022-12-18T17:17:06;1.60;99.90
19254;DHT22;9761;50.926;5.330;2022-12-18T17:19:35;1.40;99.90
19254;DHT22;9761;50.926;5.330;2022-12-18T17:22:03;1.50;99.90
19254;DHT22;9761;50.926;5.330;2022-12-18T17:24:30;1.60;99.90
19254;DHT22;9761;50.926;5.330;2022-12-18T17:26:58;1.80;99.90
19254;DHT22;9761;50.926;5.330;2022-12-18T17:29:26;1.80;99.90
19254;DHT22;9761;50.926;5.330;2022-12-18T17:31:53;1.80;99.90
19254;DHT22;9761;50.926;5.330;2022-12-18T17:34:20;1.80;99.90
19254;DHT22;9761;50.926;5.330;2022-12-18T17:36:48;1.80;99.90
19254;DHT22;9761;50.926;5.330;2022-12-18T17:39:18;1.80;99.90
19254;DHT22;9761;50.926;5.330;2022-12-18T17:41:46;1.80;99.90
19254;DHT22;9761;50.926;5.330;2022-12-18T17:44:16;1.90;99.90
19254;DHT22;9761;50.926;5.330;2022-12-18T17:46:46;1.90;99.90
19254;DHT22;9761;50.926;5.330;2022-12-18T17:49:13;1.80;99.90
19254;DHT22;9761;50.926;5.330;2022-12-18T17:51:40;1.90;99.90
19254;DHT22;9761;50.926;5.330;2022-12-18T17:54:08;2.00;99.90
19254;DHT22;9761;50.926;5.330;2022-12-18T17:56:35;2.00;99.90
19254;DHT22;9761;50.926;5.330;2022-12-18T17:59:02;1.90;99.90